Time;durP1;ratioP1;P1;durP2;ratioP2;P2;SDS_P1;SDS_P2;PMS_P1;PMS_P2;Temp;Humidity;BMP_temperature;BMP_pressure;BME280_temperature;BME280_humidity;BME280_pressure;Samples;Min_cycle;Max_cycle;Signal;HPM_P1;HPM_P2
2023/07/02 00:00:22;;;;;;;0.10;0.10;;;;;;;-144.59;100.00;63158.22;5009318;28;20229;-76
2023/07/02 00:02:50;;;;;;;0.20;0.20;;;;;;;-144.59;100.00;63158.22;4928094;29;20201;-77
2023/07/02 00:05:20;;;;;;;0.20;0.20;;;;;;;-144.59;100.00;63158.22;4928271;29;20197;-77
2023/07/02 00:07:50;;;;;;;0.30;0.30;;;;;;;-144.59;100.00;63158.22;4928458;29;20645;-77
2023/07/02 00:10:19;;;;;;;0.20;0.20;;;;;;;-144.59;100.00;63158.22;4930690;29;20221;-76
2023/07/02 00:12:49;;;;;;;0.43;0.30;;;;;;;-144.59;100.00;63158.22;4938701;28;20223;-77
2023/07/02 00:15:18;;;;;;;0.10;0.10;;;;;;;-144.59;100.00;63158.22;4984144;28;20201;-77
2023/07/02 00:17:46;;;;;;;0.10;0.10;;;;;;;-144.59;100.00;63158.22;4991887;28;20206;-76
2023/07/02 00:20:17;;;;;;;0.20;0.20;;;;;;;-144.59;100.00;63158.22;5033504;27;20194;-76
2023/07/02 00:22:46;;;;;;;0.20;0.20;;;;;;;-144.59;100.00;63158.22;5143796;27;20225;-76
2023/07/02 00:25:18;;;;;;;0.20;0.20;;;;;;;-144.59;100.00;63158.22;5150805;27;20192;-76
2023/07/02 00:27:46;;;;;;;0.20;0.20;;;;;;;-144.59;100.00;63158.22;5145384;27;20226;-76
2023/07/02 00:30:15;;;;;;;0.10;0.10;;;;;;;-144.59;100.00;63158.22;5153037;27;20220;-77
2023/07/02 00:32:45;;;;;;;0.30;0.20;;;;;;;-144.59;100.00;63158.22;5147141;27;20189;-77
2023/07/02 00:35:14;;;;;;;0.20;0.10;;;;;;;-144.59;100.00;63158.22;5148485;27;20276;-77
2023/07/02 00:37:42;;;;;;;0.20;0.20;;;;;;;-144.59;100.00;63158.22;5140625;27;20206;-77
2023/07/02 00:40:13;;;;;;;0.27;0.27;;;;;;;-144.59;100.00;63158.22;5143720;27;20186;-76
2023/07/02 00:42:43;;;;;;;0.20;0.20;;;;;;;-144.59;100.00;63158.22;5144185;27;20319;-77
2023/07/02 00:45:13;;;;;;;0.20;0.20;;;;;;;-144.59;100.00;63158.22;5144963;27;20193;-77
2023/07/02 00:47:41;;;;;;;0.40;0.30;;;;;;;-144.59;100.00;63158.22;5143953;27;20190;-77
2023/07/02 00:50:11;;;;;;;0.20;0.20;;;;;;;-144.59;100.00;63158.22;5149253;27;20236;-77
2023/07/02 00:52:40;;;;;;;0.20;0.20;;;;;;;-144.59;100.00;63158.22;5144325;27;20204;-77
2023/07/02 00:55:09;;;;;;;0.10;0.10;;;;;;;-144.59;100.00;63158.22;5043517;28;20759;-77
2023/07/02 00:57:40;;;;;;;0.10;0.10;;;;;;;-144.59;100.00;63158.22;5039054;28;20199;-77
2023/07/02 01:00:12;;;;;;;0.20;0.20;;;;;;;-144.59;100.00;63158.22;5043904;28;20276;-77
2023/07/02 01:02:43;;;;;;;0.30;0.30;;;;;;;-144.59;100.00;63158.22;5041377;28;20197;-77
2023/07/02 01:05:15;;;;;;;0.40;0.40;;;;;;;-144.59;100.00;63158.22;5046686;28;20220;-77
2023/07/02 01:07:45;;;;;;;0.50;0.40;;;;;;;-144.59;100.00;63158.22;5045117;28;20283;-77
2023/07/02 01:10:13;;;;;;;0.67;0.30;;;;;;;-144.59;100.00;63158.22;5038249;28;20531;-77
2023/07/02 01:12:42;;;;;;;0.00;0.00;;;;;;;-144.59;100.00;63158.22;5059723;27;20204;-77
2023/07/02 01:15:13;;;;;;;0.00;0.00;;;;;;;-144.59;100.00;63158.22;5144812;27;20193;-77
2023/07/02 01:17:42;;;;;;;0.07;0.07;;;;;;;-144.59;100.00;63158.22;5143827;27;20269;-77
2023/07/02 01:20:14;;;;;;;0.10;0.10;;;;;;;-144.59;100.00;63158.22;5146997;27;20224;-77
2023/07/02 01:22:43;;;;;;;0.00;0.00;;;;;;;-144.59;100.00;63158.22;5144354;27;20217;-77
2023/07/02 01:25:12;;;;;;;0.00;0.00;;;;;;;-144.59;100.00;63158.22;5143211;27;20202;-77
2023/07/02 01:27:41;;;;;;;0.10;0.10;;;;;;;-144.59;100.00;63158.22;5145339;27;20656;-77
2023/07/02 01:30:11;;;;;;;0.10;0.10;;;;;;;-144.59;100.00;63158.22;5145528;27;20214;-77
2023/07/02 01:32:40;;;;;;;0.00;0.00;;;;;;;-144.59;100.00;63158.22;5148828;27;20424;-77
2023/07/02 01:35:09;;;;;;;0.00;0.00;;;;;;;-144.59;100.00;63158.22;5143049;27;20194;-77
2023/07/02 01:37:40;;;;;;;0.10;0.10;;;;;;;-144.59;100.00;63158.22;5150540;27;20277;-77
2023/07/02 01:40:09;;;;;;;0.00;0.00;;;;;;;-144.59;100.00;63158.22;5145940;27;20194;-77
2023/07/02 01:42:38;;;;;;;0.10;0.10;;;;;;;-144.59;100.00;63158.22;5143111;27;20232;-77
2023/07/02 01:45:07;;;;;;;0.10;0.10;;;;;;;-144.59;100.00;63158.22;5128736;28;20190;-77
2023/07/02 01:47:36;;;;;;;0.10;0.10;;;;;;;-144.59;100.00;63158.22;5125982;28;20192;-77
2023/07/02 01:50:06;;;;;;;0.00;0.00;;;;;;;-144.59;100.00;63158.22;5071263;28;20205;-77
2023/07/02 01:52:34;;;;;;;0.10;0.10;;;;;;;-144.59;100.00;63158.22;5121283;27;20201;-77
2023/07/02 01:55:07;;;;;;;0.00;0.00;;;;;;;-144.59;100.00;63158.22;5127338;27;20191;-77
2023/07/02 01:57:36;;;;;;;0.10;0.10;;;;;;;-144.59;100.00;63158.22;5049348;28;20204;-77
2023/07/02 02:00:06;;;;;;;0.10;0.10;;;;;;;-144.59;100.00;63158.22;5045471;28;20251;-78
2023/07/02 02:02:35;;;;;;;0.00;0.00;;;;;;;-144.59;100.00;63158.22;5048943;28;20232;-77
2023/07/02 02:05:04;;;;;;;0.10;0.10;;;;;;;-144.59;100.00;63158.22;5043730;28;20276;-77
2023/07/02 02:07:32;;;;;;;0.00;0.00;;;;;;;-144.59;100.00;63158.22;4914717;29;20249;-77
2023/07/02 02:10:01;;;;;;;0.03;0.03;;;;;;;-144.59;100.00;63158.22;4911812;29;20245;-77
2023/07/02 02:12:31;;;;;;;0.00;0.00;;;;;;;-144.59;100.00;63158.22;4913594;29;20222;-77
2023/07/02 02:15:00;;;;;;;0.03;0.03;;;;;;;-144.59;100.00;63158.22;4911622;29;20221;-77
2023/07/02 02:17:29;;;;;;;0.10;0.10;;;;;;;-144.59;100.00;63158.22;4909547;29;20254;-77
2023/07/02 02:19:58;;;;;;;0.00;0.00;;;;;;;-144.59;100.00;63158.22;4910895;29;20613;-77
2023/07/02 02:22:28;;;;;;;0.00;0.00;;;;;;;-144.59;100.00;63158.22;4954110;28;20223;-77
2023/07/02 02:24:57;;;;;;;0.00;0.00;;;;;;;-144.59;100.00;63158.22;4995313;28;20304;-77
2023/07/02 02:27:25;;;;;;;0.00;0.00;;;;;;;-144.59;100.00;63158.22;5047756;28;20219;-77
2023/07/02 02:29:55;;;;;;;0.00;0.00;;;;;;;-144.59;100.00;63158.22;5043695;28;20201;-77
2023/07/02 02:32:24;;;;;;;0.00;0.00;;;;;;;-144.59;100.00;63158.22;5089367;27;20211;-77
2023/07/02 02:34:53;;;;;;;0.10;0.10;;;;;;;-144.59;100.00;63158.22;5121881;27;20202;-77
2023/07/02 02:37:23;;;;;;;0.00;0.00;;;;;;;-144.59;100.00;63158.22;5131106;27;20194;-77
2023/07/02 02:39:52;;;;;;;0.10;0.10;;;;;;;-144.59;100.00;63158.22;5130259;27;20187;-77
2023/07/02 02:42:20;;;;;;;0.00;0.00;;;;;;;-144.59;100.00;63158.22;5124266;27;20230;-77
2023/07/02 02:44:49;;;;;;;0.10;0.10;;;;;;;-144.59;100.00;63158.22;5124798;27;20186;-77
2023/07/02 02:47:19;;;;;;;0.00;0.00;;;;;;;-144.59;100.00;63158.22;5131586;27;20195;-78
2023/07/02 02:49:48;;;;;;;0.10;0.10;;;;;;;-144.59;100.00;63158.22;5095402;27;20198;-77
2023/07/02 02:52:16;;;;;;;0.00;0.00;;;;;;;-144.59;100.00;63158.22;5123904;27;20301;-77
2023/07/02 02:54:47;;;;;;;0.10;0.10;;;;;;;-144.59;100.00;63158.22;5127769;27;20217;-77
2023/07/02 02:57:15;;;;;;;0.00;0.00;;;;;;;-144.59;100.00;63158.22;5129172;27;20190;-77
2023/07/02 02:59:44;;;;;;;0.10;0.10;;;;;;;-144.59;100.00;63158.22;5129348;27;20194;-77
2023/07/02 03:02:12;;;;;;;0.00;0.00;;;;;;;-144.59;100.00;63158.22;5128565;27;20250;-77
2023/07/02 03:04:44;;;;;;;0.00;0.00;;;;;;;-144.59;100.00;63158.22;5124790;27;20199;-77
2023/07/02 03:07:12;;;;;;;0.10;0.10;;;;;;;-144.59;100.00;63158.22;5127573;27;20697;-77
2023/07/02 03:09:41;;;;;;;0.00;0.00;;;;;;;-144.59;100.00;63158.22;5129354;27;20194;-77
2023/07/02 03:12:10;;;;;;;0.10;0.10;;;;;;;-144.59;100.00;63158.22;5124186;27;20278;-76
2023/07/02 03:14:38;;;;;;;0.00;0.00;;;;;;;-144.59;100.00;63158.22;5121982;27;20243;-77
2023/07/02 03:17:07;;;;;;;0.10;0.10;;;;;;;-144.59;100.00;63158.22;4991479;28;20195;-77
2023/07/02 03:19:36;;;;;;;0.00;0.00;;;;;;;-144.59;100.00;63158.22;4990624;28;20242;-77
2023/07/02 03:22:06;;;;;;;0.10;0.10;;;;;;;-144.59;100.00;63158.22;4988182;28;20246;-77
2023/07/02 03:24:38;;;;;;;0.00;0.00;;;;;;;-144.59;100.00;63158.22;4956812;28;20202;-77
2023/07/02 03:27:07;;;;;;;0.10;0.10;;;;;;;-144.59;100.00;63158.22;4986587;28;20642;-77
2023/07/02 03:29:38;;;;;;;0.10;0.10;;;;;;;-144.59;100.00;63158.22;4987994;28;20233;-77
2023/07/02 03:32:07;;;;;;;0.00;0.00;;;;;;;-144.59;100.00;63158.22;4987572;28;20804;-77
2023/07/02 03:34:35;;;;;;;0.10;0.10;;;;;;;-144.59;100.00;63158.22;5021192;27;20667;-77
2023/07/02 03:37:06;;;;;;;0.00;0.00;;;;;;;-144.59;100.00;63158.22;5130608;27;20202;-77
2023/07/02 03:39:35;;;;;;;0.00;0.00;;;;;;;-144.59;100.00;63158.22;5132732;27;20221;-77
2023/07/02 03:42:03;;;;;;;0.10;0.10;;;;;;;-144.59;100.00;63158.22;5126357;27;20194;-77
2023/07/02 03:44:33;;;;;;;0.00;0.00;;;;;;;-144.59;100.00;63158.22;5123354;27;20224;-77
2023/07/02 03:47:02;;;;;;;0.07;0.07;;;;;;;-144.59;100.00;63158.22;5131552;27;20721;-77
2023/07/02 03:49:31;;;;;;;0.10;0.10;;;;;;;-144.59;100.00;63158.22;5128408;27;20199;-77
2023/07/02 03:51:59;;;;;;;0.10;0.10;;;;;;;-144.59;100.00;63158.22;5124077;27;20307;-77
2023/07/02 03:54:30;;;;;;;0.00;0.00;;;;;;;-144.59;100.00;63158.22;5128261;27;20641;-77
2023/07/02 03:56:58;;;;;;;0.00;0.00;;;;;;;-144.59;100.00;63158.22;5129416;27;20240;-77
2023/07/02 03:59:27;;;;;;;0.10;0.10;;;;;;;-144.59;100.00;63158.22;5127451;27;20194;-77
2023/07/02 04:01:55;;;;;;;0.10;0.10;;;;;;;-144.59;100.00;63158.22;5119564;27;20201;-77
2023/07/02 04:04:24;;;;;;;0.10;0.10;;;;;;;-144.59;100.00;63158.22;5124140;27;20204;-76
2023/07/02 04:06:53;;;;;;;0.00;0.00;;;;;;;-144.59;100.00;63158.22;5125462;27;20194;-77
2023/07/02 04:09:21;;;;;;;0.00;0.00;;;;;;;-144.59;100.00;63158.22;5125878;27;20233;-77
2023/07/02 04:11:51;;;;;;;0.00;0.00;;;;;;;-144.59;100.00;63158.22;5048558;28;20221;-77
2023/07/02 04:14:20;;;;;;;0.00;0.00;;;;;;;-144.59;100.00;63158.22;5046680;28;20189;-77
2023/07/02 04:16:48;;;;;;;0.00;0.00;;;;;;;-144.59;100.00;63158.22;5042688;28;20223;-77
2023/07/02 04:19:19;;;;;;;0.00;0.00;;;;;;;-144.59;100.00;63158.22;5044449;28;20248;-77
2023/07/02 04:21:48;;;;;;;0.10;0.10;;;;;;;-144.59;100.00;63158.22;5044101;28;20367;-77
2023/07/02 04:24:17;;;;;;;0.07;0.07;;;;;;;-144.59;100.00;63158.22;5051052;28;20691;-77
2023/07/02 04:26:46;;;;;;;0.00;0.00;;;;;;;-144.59;100.00;63158.22;5047358;28;20197;-77
2023/07/02 04:29:36;;;;;;;0.10;0.10;;;;;;;-144.59;100.00;63158.22;5075382;27;20220;-78
2023/07/02 04:32:05;;;;;;;0.10;0.10;;;;;;;-144.59;100.00;63158.22;5119726;27;20237;-77
2023/07/02 04:34:33;;;;;;;0.00;0.00;;;;;;;-144.59;100.00;63158.22;5129295;27;20190;-77
2023/07/02 04:37:02;;;;;;;0.00;0.00;;;;;;;-144.59;100.00;63158.22;5127294;27;20198;-77
2023/07/02 04:39:30;;;;;;;0.00;0.00;;;;;;;-144.59;100.00;63158.22;5131390;27;20187;-77
2023/07/02 04:41:59;;;;;;;0.03;0.03;;;;;;;-144.59;100.00;63158.22;5127127;27;20194;-77
2023/07/02 04:44:30;;;;;;;0.00;0.00;;;;;;;-144.59;100.00;63158.22;5149824;27;20186;-77
2023/07/02 04:47:03;;;;;;;0.00;0.00;;;;;;;-144.59;100.00;63158.22;5143398;27;20200;-77
2023/07/02 04:49:31;;;;;;;0.10;0.10;;;;;;;-144.59;100.00;63158.22;5154772;27;20206;-77
2023/07/02 04:52:00;;;;;;;0.10;0.10;;;;;;;-144.59;100.00;63158.22;5145326;27;20193;-77
2023/07/02 04:54:29;;;;;;;0.00;0.00;;;;;;;-144.59;100.00;63158.22;5147316;27;20208;-77
2023/07/02 04:57:00;;;;;;;0.10;0.10;;;;;;;-144.59;100.00;63158.22;5145378;27;20589;-77
2023/07/02 04:59:28;;;;;;;0.00;0.00;;;;;;;-144.59;100.00;63158.22;5146249;27;20194;-77
2023/07/02 05:01:57;;;;;;;0.00;0.00;;;;;;;-144.59;100.00;63158.22;5147064;27;20194;-77
2023/07/02 05:04:27;;;;;;;0.00;0.00;;;;;;;-144.59;100.00;63158.22;5145352;27;20244;-77
2023/07/02 05:06:55;;;;;;;0.00;0.00;;;;;;;-144.59;100.00;63158.22;5147356;27;20202;-77
2023/07/02 05:09:24;;;;;;;0.00;0.00;;;;;;;-144.59;100.00;63158.22;5147031;27;20225;-77
2023/07/02 05:11:53;;;;;;;0.00;0.00;;;;;;;-144.59;100.00;63158.22;5112385;27;20192;-77
2023/07/02 05:14:22;;;;;;;0.00;0.00;;;;;;;-144.59;100.00;63158.22;5143737;27;20221;-77
2023/07/02 05:16:50;;;;;;;0.00;0.00;;;;;;;-144.59;100.00;63158.22;5140679;27;20201;-77
2023/07/02 05:19:19;;;;;;;0.00;0.00;;;;;;;-144.59;100.00;63158.22;5145407;27;20222;-77
2023/07/02 05:21:49;;;;;;;0.00;0.00;;;;;;;-144.59;100.00;63158.22;5145126;27;20217;-77
2023/07/02 05:24:17;;;;;;;0.00;0.00;;;;;;;-144.59;100.00;63158.22;5149944;27;20455;-77
2023/07/02 05:26:46;;;;;;;0.10;0.10;;;;;;;-144.59;100.00;63158.22;5137594;27;20189;-77
2023/07/02 05:29:15;;;;;;;0.00;0.00;;;;;;;-144.59;100.00;63158.22;5148642;27;20202;-77
2023/07/02 05:31:43;;;;;;;0.00;0.00;;;;;;;-144.59;100.00;63158.22;5151144;27;20276;-77
2023/07/02 05:34:14;;;;;;;0.00;0.00;;;;;;;-144.59;100.00;63158.22;5151410;27;20217;-76
2023/07/02 05:36:43;;;;;;;0.10;0.10;;;;;;;-144.59;100.00;63158.22;5149476;27;20264;-77
2023/07/02 05:39:13;;;;;;;0.03;0.03;;;;;;;-144.59;100.00;63158.22;5151043;27;20186;-77
2023/07/02 05:41:42;;;;;;;0.10;0.10;;;;;;;-144.59;100.00;63158.22;5147551;27;20201;-77
2023/07/02 05:44:11;;;;;;;0.00;0.00;;;;;;;-144.59;100.00;63158.22;5095612;27;20221;-77
2023/07/02 05:46:41;;;;;;;0.00;0.00;;;;;;;-144.59;100.00;63158.22;5146374;27;20694;-77
2023/07/02 05:49:10;;;;;;;0.10;0.10;;;;;;;-144.59;100.00;63158.22;5148853;27;20242;-77
2023/07/02 05:51:38;;;;;;;0.00;0.00;;;;;;;-144.59;100.00;63158.22;5150254;27;20207;-77
2023/07/02 05:54:07;;;;;;;0.00;0.00;;;;;;;-144.59;100.00;63158.22;5146040;27;20244;-77
2023/07/02 05:56:37;;;;;;;0.00;0.00;;;;;;;-144.59;100.00;63158.22;5153700;27;20204;-77
2023/07/02 05:59:06;;;;;;;0.00;0.00;;;;;;;-144.59;100.00;63158.22;5148655;27;20193;-77
2023/07/02 06:01:34;;;;;;;0.00;0.00;;;;;;;-144.59;100.00;63158.22;5147925;27;20257;-77
2023/07/02 06:04:06;;;;;;;0.00;0.00;;;;;;;-144.59;100.00;63158.22;5149257;27;20190;-77
2023/07/02 06:06:36;;;;;;;0.00;0.00;;;;;;;-144.59;100.00;63158.22;5148852;27;20273;-77
2023/07/02 06:09:04;;;;;;;0.00;0.00;;;;;;;-144.59;100.00;63158.22;5147839;27;20663;-77
2023/07/02 06:11:32;;;;;;;0.00;0.00;;;;;;;-144.59;100.00;63158.22;5144940;27;20216;-77
2023/07/02 06:14:06;;;;;;;0.00;0.00;;;;;;;-144.59;100.00;63158.22;5150550;27;20687;-77
2023/07/02 06:16:34;;;;;;;0.03;0.03;;;;;;;-144.59;100.00;63158.22;5146921;27;20197;-77
2023/07/02 06:19:06;;;;;;;0.00;0.00;;;;;;;-144.59;100.00;63158.22;5146404;27;20205;-77
2023/07/02 06:21:34;;;;;;;0.00;0.00;;;;;;;-144.59;100.00;63158.22;5152110;27;20196;-77
2023/07/02 06:24:03;;;;;;;0.00;0.00;;;;;;;-144.59;100.00;63158.22;5150204;27;20198;-77
2023/07/02 06:26:33;;;;;;;0.10;0.10;;;;;;;-144.59;100.00;63158.22;5115294;27;20619;-76
2023/07/02 06:29:03;;;;;;;0.00;0.00;;;;;;;-144.59;100.00;63158.22;5149868;27;20200;-76
2023/07/02 06:31:32;;;;;;;0.00;0.00;;;;;;;-144.59;100.00;63158.22;5145129;27;20194;-77
2023/07/02 06:34:00;;;;;;;0.00;0.00;;;;;;;-144.59;100.00;63158.22;5148799;27;20213;-76
2023/07/02 06:36:30;;;;;;;0.10;0.10;;;;;;;-144.59;100.00;63158.22;5149610;27;20208;-76
2023/07/02 06:38:58;;;;;;;0.00;0.00;;;;;;;-144.59;100.00;63158.22;5150259;27;20251;-76
2023/07/02 06:41:27;;;;;;;0.10;0.10;;;;;;;-144.59;100.00;63158.22;5141485;27;20198;-77
2023/07/02 06:43:56;;;;;;;0.00;0.00;;;;;;;-144.59;100.00;63158.22;5134263;27;20297;-76
2023/07/02 06:46:27;;;;;;;0.00;0.00;;;;;;;-144.59;100.00;63158.22;5126064;27;20190;-76
2023/07/02 06:48:56;;;;;;;0.10;0.10;;;;;;;-144.59;100.00;63158.22;5126500;27;20194;-76
2023/07/02 06:51:26;;;;;;;0.00;0.00;;;;;;;-144.59;100.00;63158.22;5128056;27;20641;-77
2023/07/02 06:53:55;;;;;;;0.00;0.00;;;;;;;-144.59;100.00;63158.22;5127700;27;20276;-76
2023/07/02 06:56:24;;;;;;;0.00;0.00;;;;;;;-144.59;100.00;63158.22;5126624;27;20198;-77
2023/07/02 06:58:52;;;;;;;0.10;0.10;;;;;;;-144.59;100.00;63158.22;5127817;27;20186;-77
2023/07/02 07:01:20;;;;;;;0.00;0.00;;;;;;;-144.59;100.00;63158.22;5127543;27;20194;-76
2023/07/02 07:03:50;;;;;;;0.10;0.10;;;;;;;-144.59;100.00;63158.22;5047046;28;20251;-77
2023/07/02 07:06:21;;;;;;;0.00;0.00;;;;;;;-144.59;100.00;63158.22;5043202;28;20240;-76
2023/07/02 07:08:50;;;;;;;0.10;0.10;;;;;;;-144.59;100.00;63158.22;5047195;28;20207;-77
2023/07/02 07:11:19;;;;;;;0.00;0.00;;;;;;;-144.59;100.00;63158.22;5039171;28;20211;-77
2023/07/02 07:13:48;;;;;;;0.10;0.10;;;;;;;-144.59;100.00;63158.22;5043360;28;20262;-77
2023/07/02 07:16:18;;;;;;;0.10;0.10;;;;;;;-144.59;100.00;63158.22;5042869;28;20239;-77
2023/07/02 07:18:47;;;;;;;0.00;0.00;;;;;;;-144.59;100.00;63158.22;5046859;28;20193;-77
2023/07/02 07:21:19;;;;;;;0.00;0.00;;;;;;;-144.59;100.00;63158.22;5061730;27;20205;-77
2023/07/02 07:23:47;;;;;;;0.10;0.10;;;;;;;-144.59;100.00;63158.22;5124487;27;20194;-76
2023/07/02 07:26:16;;;;;;;0.00;0.00;;;;;;;-144.59;100.00;63158.22;5128579;27;20225;-77
2023/07/02 07:28:45;;;;;;;0.10;0.10;;;;;;;-144.59;100.00;63158.22;5125479;27;20186;-76
2023/07/02 07:31:14;;;;;;;0.10;0.10;;;;;;;-144.59;100.00;63158.22;5125052;27;20199;-76
2023/07/02 07:33:45;;;;;;;0.10;0.10;;;;;;;-144.59;100.00;63158.22;5127527;27;20214;-76
2023/07/02 07:36:15;;;;;;;0.10;0.10;;;;;;;-144.59;100.00;63158.22;5123767;27;20198;-76
2023/07/02 07:38:46;;;;;;;0.00;0.00;;;;;;;-144.59;100.00;63158.22;5128855;27;20220;-78
2023/07/02 07:41:15;;;;;;;0.10;0.10;;;;;;;-144.59;100.00;63158.22;5128650;27;20190;-77
2023/07/02 07:43:43;;;;;;;0.00;0.00;;;;;;;-144.59;100.00;63158.22;5126563;27;20226;-77
2023/07/02 07:46:14;;;;;;;0.10;0.10;;;;;;;-144.59;100.00;63158.22;5132117;27;20222;-77
2023/07/02 07:48:42;;;;;;;0.10;0.10;;;;;;;-144.59;100.00;63158.22;5124800;27;20195;-77
2023/07/02 07:51:11;;;;;;;0.00;0.00;;;;;;;-144.59;100.00;63158.22;5134091;27;20641;-77
2023/07/02 07:53:41;;;;;;;0.00;0.00;;;;;;;-144.59;100.00;63158.22;5123693;27;20387;-77
2023/07/02 07:56:11;;;;;;;0.10;0.10;;;;;;;-144.59;100.00;63158.22;5131298;27;20222;-77
2023/07/02 07:58:39;;;;;;;0.10;0.10;;;;;;;-144.59;100.00;63158.22;5125554;27;20293;-77
2023/07/02 08:01:09;;;;;;;0.00;0.00;;;;;;;-144.59;100.00;63158.22;5127612;27;20208;-76
2023/07/02 08:03:39;;;;;;;0.00;0.00;;;;;;;-144.59;100.00;63158.22;5128194;27;20660;-77
2023/07/02 08:06:09;;;;;;;0.10;0.10;;;;;;;-144.59;100.00;63158.22;5135046;27;20198;-76
2023/07/02 08:08:37;;;;;;;0.03;0.03;;;;;;;-144.59;100.00;63158.22;5119631;27;20228;-77
2023/07/02 08:11:05;;;;;;;0.00;0.00;;;;;;;-144.59;100.00;63158.22;5124265;27;20201;-77
2023/07/02 08:13:36;;;;;;;0.00;0.00;;;;;;;-144.59;100.00;63158.22;5123965;27;20190;-76
2023/07/02 08:16:07;;;;;;;0.10;0.10;;;;;;;-144.59;100.00;63158.22;5124435;27;20317;-77
2023/07/02 08:18:36;;;;;;;0.00;0.00;;;;;;;-144.59;100.00;63158.22;5125681;27;20697;-77
2023/07/02 08:21:06;;;;;;;0.00;0.00;;;;;;;-144.59;100.00;63158.22;5121638;27;20194;-76
2023/07/02 08:23:34;;;;;;;0.00;0.00;;;;;;;-144.59;100.00;63158.22;5123629;27;20297;-77
2023/07/02 08:26:10;;;;;;;0.10;0.10;;;;;;;-144.59;100.00;63158.22;5122796;27;20201;-77
2023/07/02 08:28:42;;;;;;;0.00;0.00;;;;;;;-144.59;100.00;63158.22;5126325;27;20285;-77
2023/07/02 08:31:11;;;;;;;0.00;0.00;;;;;;;-144.59;100.00;63158.22;5117188;27;20200;-77
2023/07/02 08:33:39;;;;;;;0.10;0.10;;;;;;;-144.59;100.00;63158.22;5121699;27;20247;-77
2023/07/02 08:36:08;;;;;;;0.00;0.00;;;;;;;-144.59;100.00;63158.22;5119343;27;20282;-76
2023/07/02 08:38:39;;;;;;;0.00;0.00;;;;;;;-144.59;100.00;63158.22;5120800;27;20199;-77
2023/07/02 08:41:08;;;;;;;0.00;0.00;;;;;;;-144.59;100.00;63158.22;5124426;27;20197;-77
2023/07/02 08:43:37;;;;;;;0.00;0.00;;;;;;;-144.59;100.00;63158.22;5124421;27;20214;-77
2023/07/02 08:46:07;;;;;;;0.00;0.00;;;;;;;-144.59;100.00;63158.22;5129979;27;20273;-77
2023/07/02 08:48:36;;;;;;;0.00;0.00;;;;;;;-144.59;100.00;63158.22;5130595;27;20194;-77
2023/07/02 08:51:05;;;;;;;0.00;0.00;;;;;;;-144.59;100.00;63158.22;5126850;27;20239;-77
2023/07/02 08:53:34;;;;;;;0.00;0.00;;;;;;;-144.59;100.00;63158.22;5123118;27;20194;-77
2023/07/02 08:56:04;;;;;;;0.00;0.00;;;;;;;-144.59;100.00;63158.22;5124049;27;20249;-77
2023/07/02 08:58:34;;;;;;;0.00;0.00;;;;;;;-144.59;100.00;63158.22;5130261;27;20195;-77
2023/07/02 09:01:09;;;;;;;0.00;0.00;;;;;;;-144.59;100.00;63158.22;5127030;27;20186;-77
2023/07/02 09:03:39;;;;;;;0.10;0.10;;;;;;;-144.59;100.00;63158.22;5127831;27;20198;-77
2023/07/02 09:06:09;;;;;;;0.00;0.00;;;;;;;-144.59;100.00;63158.22;5130717;27;20198;-77
2023/07/02 09:08:38;;;;;;;0.00;0.00;;;;;;;-144.59;100.00;63158.22;5126059;27;20663;-77
2023/07/02 09:11:07;;;;;;;0.00;0.00;;;;;;;-144.59;100.00;63158.22;5124473;27;20239;-77
2023/07/02 09:13:47;;;;;;;0.00;0.00;;;;;;;-144.59;100.00;63158.22;5130016;27;20200;-77
2023/07/02 09:16:25;;;;;;;0.00;0.00;;;;;;;-144.59;100.00;63158.22;5128236;27;20214;-77
2023/07/02 09:19:03;;;;;;;0.00;0.00;;;;;;;-144.59;100.00;63158.22;5125772;27;20212;-77
2023/07/02 09:21:44;;;;;;;0.00;0.00;;;;;;;-144.59;100.00;63158.22;5072921;28;20253;-77
2023/07/02 09:24:17;;;;;;;0.00;0.00;;;;;;;-144.59;100.00;63158.22;5123468;28;20289;-77
2023/07/02 09:26:49;;;;;;;0.00;0.00;;;;;;;-144.59;100.00;63158.22;5132387;28;20665;-77
2023/07/02 09:29:20;;;;;;;0.00;0.00;;;;;;;-144.59;100.00;63158.22;5130254;28;20182;-77
2023/07/02 09:31:50;;;;;;;0.00;0.00;;;;;;;-144.59;100.00;63158.22;5123895;28;20346;-77
2023/07/02 09:34:37;;;;;;;0.10;0.10;;;;;;;-144.59;100.00;63158.22;5129867;28;20198;-76
2023/07/02 09:37:07;;;;;;;0.00;0.00;;;;;;;-144.59;100.00;63158.22;5130508;28;20192;-77
2023/07/02 09:39:39;;;;;;;0.00;0.00;;;;;;;-144.59;100.00;63158.22;5128504;28;20202;-76
2023/07/02 09:42:10;;;;;;;0.00;0.00;;;;;;;-144.59;100.00;63158.22;5125724;28;20616;-77
2023/07/02 09:44:42;;;;;;;0.00;0.00;;;;;;;-144.59;100.00;63158.22;5124021;28;20209;-76
2023/07/02 09:47:13;;;;;;;0.00;0.00;;;;;;;-144.59;100.00;63158.22;5127045;28;20225;-77
2023/07/02 09:49:46;;;;;;;0.00;0.00;;;;;;;-144.59;100.00;63158.22;5124843;28;20198;-77
2023/07/02 09:52:19;;;;;;;0.00;0.00;;;;;;;-144.59;100.00;63158.22;5130378;28;20580;-79
2023/07/02 09:54:50;;;;;;;0.00;0.00;;;;;;;-144.59;100.00;63158.22;5125514;28;20194;-77
2023/07/02 09:57:18;;;;;;;0.00;0.00;;;;;;;-144.59;100.00;63158.22;5090259;28;20190;-78
2023/07/02 09:59:50;;;;;;;0.00;0.00;;;;;;;-144.59;100.00;63158.22;5119829;28;20556;-78
2023/07/02 10:02:22;;;;;;;0.00;0.00;;;;;;;-144.59;100.00;63158.22;5126915;28;20243;-78
2023/07/02 10:04:54;;;;;;;0.00;0.00;;;;;;;-144.59;100.00;63158.22;5126504;28;20195;-78
2023/07/02 10:07:32;;;;;;;0.00;0.00;;;;;;;-144.59;100.00;63158.22;5127608;28;20234;-79
2023/07/02 10:10:02;;;;;;;0.00;0.00;;;;;;;-144.59;100.00;63158.22;5124030;28;20205;-79
2023/07/02 10:12:32;;;;;;;0.00;0.00;;;;;;;-144.59;100.00;63158.22;5083817;28;20206;-77
2023/07/02 10:18:34;;;;;;;0.00;0.00;;;;;;;-144.59;100.00;63158.22;5091046;28;20205;-78
2023/07/02 10:21:17;;;;;;;0.00;0.00;;;;;;;-144.59;100.00;63158.22;5059716;28;20226;-78
2023/07/02 10:23:46;;;;;;;0.00;0.00;;;;;;;-144.59;100.00;63158.22;5084303;28;20644;-77
2023/07/02 10:26:20;;;;;;;0.07;0.07;;;;;;;-144.59;100.00;63158.22;5090840;28;20200;-77
2023/07/02 10:29:02;;;;;;;0.00;0.00;;;;;;;-144.59;100.00;63158.22;5060328;28;20195;-76
2023/07/02 10:31:33;;;;;;;0.00;0.00;;;;;;;-144.59;100.00;63158.22;5092168;27;20198;-77
2023/07/02 10:34:05;;;;;;;0.00;0.00;;;;;;;-144.59;100.00;63158.22;5127073;27;20664;-78
2023/07/02 10:36:34;;;;;;;0.00;0.00;;;;;;;-144.59;100.00;63158.22;5130291;27;20253;-75
2023/07/02 10:42:15;;;;;;;0.00;0.00;;;;;;;-144.59;100.00;63158.22;5030097;28;20193;-79
2023/07/02 10:44:52;;;;;;;0.00;0.00;;;;;;;-144.59;100.00;63158.22;5026084;28;20669;-78
2023/07/02 10:48:03;;;;;;;0.10;0.10;;;;;;;-144.59;100.00;63158.22;5029419;28;20229;-79
2023/07/02 10:51:23;;;;;;;0.00;0.00;;;;;;;-144.59;100.00;63158.22;5010093;28;20205;-78
2023/07/02 10:54:07;;;;;;;0.00;0.00;;;;;;;-144.59;100.00;63158.22;5010614;28;20198;-78
2023/07/02 10:56:47;;;;;;;0.00;0.00;;;;;;;-144.59;100.00;63158.22;5031119;28;20218;-78
2023/07/02 11:02:22;;;;;;;0.00;0.00;;;;;;;-144.59;100.00;63158.22;5092294;28;20324;-78
2023/07/02 11:04:51;;;;;;;0.00;0.00;;;;;;;-144.59;100.00;63158.22;5084611;28;20199;-78
2023/07/02 11:07:45;;;;;;;0.00;0.00;;;;;;;-144.59;100.00;63158.22;5084587;28;20278;-77
2023/07/02 11:10:22;;;;;;;0.10;0.10;;;;;;;-144.59;100.00;63158.22;5111154;28;20198;-78
2023/07/02 11:12:52;;;;;;;0.10;0.10;;;;;;;-144.59;100.00;63158.22;5111032;28;20195;-78
2023/07/02 11:15:25;;;;;;;0.00;0.00;;;;;;;-144.59;100.00;63158.22;5107204;28;20195;-78
2023/07/02 11:17:58;;;;;;;0.00;0.00;;;;;;;-144.59;100.00;63158.22;5131989;27;20257;-78
2023/07/02 11:20:36;;;;;;;0.00;0.00;;;;;;;-144.59;100.00;63158.22;5146436;27;20240;-79
2023/07/02 11:23:21;;;;;;;0.00;0.00;;;;;;;-144.59;100.00;63158.22;5110166;28;20271;-79
2023/07/02 11:26:14;;;;;;;0.10;0.10;;;;;;;-144.59;100.00;63158.22;5105952;28;20195;-78
2023/07/02 11:28:52;;;;;;;0.00;0.00;;;;;;;-144.59;100.00;63158.22;5037427;28;20206;-78
2023/07/02 11:31:32;;;;;;;0.00;0.00;;;;;;;-144.59;100.00;63158.22;5108785;28;20209;-78
2023/07/02 11:34:12;;;;;;;0.00;0.00;;;;;;;-144.59;100.00;63158.22;5060261;28;20209;-79